createdAt,value
2023-05-11T03:44:12.410Z,12.63
2023-05-11T03:45:12.404Z,12.17
2023-05-11T03:46:12.444Z,12.55
2023-05-11T03:47:12.375Z,12.28
2023-05-11T03:48:12.376Z,12.45
2023-05-11T03:49:13.868Z,12.85
2023-05-11T03:50:12.396Z,12.15
2023-05-11T04:17:12.065Z,12.55
2023-05-11T04:18:12.039Z,12.33
2023-05-11T04:19:12.055Z,12.81
2023-05-11T04:20:12.015Z,12.25
2023-05-11T04:21:12.026Z,12.54
2023-05-11T04:22:12.018Z,12.67
2023-05-11T04:23:11.989Z,12.70
2023-05-11T04:24:11.970Z,12.76
2023-05-11T04:25:11.967Z,12.43
2023-05-11T04:26:11.952Z,12.69
2023-05-11T04:27:11.943Z,12.25
2023-05-11T04:28:11.935Z,12.43
2023-05-11T04:29:11.926Z,12.33
2023-05-11T04:30:11.917Z,12.25
2023-05-11T04:31:11.954Z,12.35
2023-05-11T04:32:11.915Z,12.42
2023-05-11T04:33:11.883Z,12.61
2023-05-11T04:34:11.868Z,12.32
2023-05-11T04:35:11.858Z,12.15
2023-05-11T04:36:11.845Z,12.36
2023-05-11T04:37:11.833Z,12.45
2023-05-11T04:38:12.052Z,12.47
2023-05-11T04:39:11.813Z,12.36
2023-05-11T04:40:11.808Z,12.29
2023-05-11T04:41:11.999Z,12.58
2023-05-11T04:42:11.778Z,12.32
2023-05-11T04:43:11.772Z,12.63
2023-05-11T04:44:11.763Z,12.57
2023-05-11T04:45:11.754Z,12.54
2023-05-11T04:46:12.164Z,12.04
2023-05-11T04:47:11.727Z,12.40
2023-05-11T04:48:11.747Z,12.22
2023-05-11T04:49:11.909Z,12.37
2023-05-11T04:50:11.690Z,12.55
2023-05-11T04:51:11.685Z,12.43
2023-05-11T04:52:11.674Z,12.15
2023-05-11T04:53:11.680Z,12.87
2023-05-11T04:54:11.687Z,12.30
2023-05-11T04:55:11.845Z,12.48
2023-05-11T04:56:11.631Z,12.12
2023-05-11T04:57:11.626Z,12.45
2023-05-11T04:58:11.608Z,12.21
2023-05-11T04:59:11.602Z,12.48
2023-05-11T05:00:11.625Z,12.58
2023-05-11T05:01:11.646Z,12.33
2023-05-11T05:02:11.569Z,12.40
2023-05-11T05:03:11.560Z,12.12
2023-05-11T05:04:11.605Z,12.43
2023-05-11T05:05:11.542Z,12.71
2023-05-11T05:06:11.524Z,12.63
2023-05-11T05:07:11.515Z,12.29
2023-05-11T05:08:11.499Z,12.43
2023-05-11T05:09:11.501Z,12.48
2023-05-11T05:10:11.504Z,12.88
2023-05-11T05:11:11.474Z,12.69
2023-05-11T05:12:11.524Z,12.60
2023-05-11T05:13:11.461Z,12.79
2023-05-11T05:14:11.443Z,12.61
2023-05-11T05:15:11.445Z,12.37
2023-05-11T05:16:11.455Z,12.63
2023-05-11T05:17:11.515Z,12.47
2023-05-11T05:18:11.423Z,12.70
2023-05-11T05:19:11.388Z,12.84
2023-05-11T05:20:11.384Z,12.66
2023-05-11T05:21:11.365Z,13.12
2023-05-11T05:22:11.362Z,12.61
2023-05-11T05:23:11.349Z,12.74
2023-05-11T05:24:11.374Z,12.67
2023-05-11T05:25:11.325Z,12.69
2023-05-11T05:26:11.354Z,12.99
2023-05-11T05:27:11.303Z,12.89
2023-05-11T05:28:11.302Z,12.92
2023-05-11T05:29:11.293Z,12.85
2023-05-11T05:30:11.273Z,12.95
2023-05-11T05:31:11.322Z,13.01
2023-05-11T05:32:11.267Z,13.03
2023-05-11T05:33:11.273Z,12.94
2023-05-11T05:34:11.621Z,13.16
2023-05-11T05:35:11.233Z,13.35
2023-05-11T05:36:11.212Z,13.65
2023-05-11T05:37:11.202Z,13.29
2023-05-11T05:38:11.199Z,13.34
2023-05-11T05:39:11.194Z,13.62
2023-05-11T05:40:11.169Z,13.89
2023-05-11T05:41:11.166Z,13.83
2023-05-11T05:42:11.162Z,13.72
2023-05-11T05:43:11.157Z,14.13
2023-05-11T05:44:11.132Z,14.19
2023-05-11T05:45:13.853Z,14.36
2023-05-11T05:46:11.176Z,13.83
2023-05-11T05:47:11.092Z,14.24
2023-05-11T05:48:11.127Z,13.92
2023-05-11T05:49:11.081Z,14.03
2023-05-11T05:50:11.080Z,14.39
2023-05-11T05:51:11.065Z,14.29
2023-05-11T05:52:11.038Z,13.79
2023-05-11T05:53:11.028Z,14.19
2023-05-11T05:54:11.027Z,13.93
2023-05-11T05:55:11.006Z,14.29
2023-05-11T05:56:11.012Z,13.79
2023-05-11T05:57:11.896Z,14.13
2023-05-11T05:58:11.188Z,14.06
2023-05-11T05:59:11.168Z,14.01
2023-05-11T06:00:10.946Z,14.00
2023-05-11T06:01:10.945Z,14.21
2023-05-11T06:02:10.953Z,14.31
2023-05-11T06:03:11.078Z,14.16
2023-05-11T06:04:10.960Z,13.85
2023-05-11T06:05:10.895Z,13.83
2023-05-11T06:06:10.890Z,14.01
2023-05-11T06:07:10.872Z,14.13
2023-05-11T06:08:11.510Z,14.19
2023-05-11T06:09:10.850Z,13.95
2023-05-11T06:10:10.843Z,13.83
2023-05-11T06:11:10.838Z,14.20
2023-05-11T06:12:10.815Z,14.24
2023-05-11T06:13:10.805Z,14.16
2023-05-11T06:14:10.815Z,13.67
2023-05-11T06:15:10.785Z,13.95
2023-05-11T06:16:10.823Z,13.86
2023-05-11T06:17:10.764Z,13.89
2023-05-11T06:18:10.796Z,14.59
2023-05-11T06:19:10.818Z,14.26
2023-05-11T06:20:10.733Z,14.19
2023-05-11T06:21:10.725Z,14.44
2023-05-11T06:22:10.710Z,14.31
2023-05-11T06:23:10.707Z,14.27
2023-05-11T06:24:10.689Z,14.30
2023-05-11T06:25:10.686Z,14.46
2023-05-11T06:26:10.681Z,14.11
2023-05-11T06:27:10.667Z,14.11
2023-05-11T06:28:10.672Z,14.41
2023-05-11T06:29:10.641Z,14.35
2023-05-11T06:30:10.662Z,14.08
2023-05-11T06:31:10.646Z,14.54
2023-05-11T06:32:10.696Z,14.45
2023-05-11T06:33:10.599Z,14.74
2023-05-11T06:34:10.595Z,14.26
2023-05-11T06:35:10.581Z,14.39
2023-05-11T06:36:10.770Z,14.06
2023-05-11T06:37:10.556Z,14.06
2023-05-11T06:38:10.543Z,13.85
2023-05-11T06:39:10.533Z,13.93
2023-05-11T06:40:10.535Z,13.85
2023-05-11T06:41:10.514Z,14.12
2023-05-11T06:42:10.511Z,14.20
2023-05-11T06:43:10.502Z,13.98
2023-05-11T06:44:10.497Z,13.97
2023-05-11T06:45:10.528Z,13.80
2023-05-11T06:46:10.562Z,13.72
2023-05-11T06:47:10.456Z,13.80
2023-05-11T06:48:10.463Z,14.00
2023-05-11T06:49:10.440Z,14.11
2023-05-11T06:50:10.415Z,14.00
2023-05-11T06:51:10.415Z,13.80
2023-05-11T06:52:10.400Z,14.11
2023-05-11T06:53:10.389Z,13.71
2023-05-11T06:54:10.377Z,13.95
2023-05-11T06:55:10.368Z,14.13
2023-05-11T06:56:10.354Z,14.01
2023-05-11T06:57:11.406Z,13.79
2023-05-11T06:58:10.540Z,13.92
2023-05-11T06:59:10.334Z,13.85
2023-05-11T07:00:10.333Z,13.54
2023-05-11T07:01:10.362Z,14.11
2023-05-11T07:02:10.388Z,13.71
2023-05-11T07:03:10.355Z,13.61
2023-05-11T07:04:10.321Z,13.92
2023-05-11T07:05:10.264Z,13.72
2023-05-11T07:06:10.253Z,14.23
2023-05-11T07:07:10.239Z,13.97
2023-05-11T07:08:10.234Z,13.90
2023-05-11T07:09:10.217Z,13.70
2023-05-11T07:10:10.202Z,13.68
2023-05-11T07:11:10.216Z,14.09
2023-05-11T07:12:10.181Z,13.75
2023-05-11T07:13:10.175Z,14.26
2023-05-11T07:14:10.166Z,14.00
2023-05-11T07:15:10.149Z,14.04
2023-05-11T07:16:10.143Z,14.17
2023-05-11T07:17:10.332Z,14.09
2023-05-11T07:18:10.291Z,14.11
2023-05-11T07:19:10.149Z,14.36
2023-05-11T07:20:10.104Z,14.31
2023-05-11T07:21:10.094Z,14.24
2023-05-11T07:22:10.082Z,13.86
2023-05-11T07:23:10.063Z,13.79
2023-05-11T07:24:10.065Z,13.80
2023-05-11T07:25:10.071Z,14.16
2023-05-11T07:26:10.042Z,13.83
2023-05-11T07:27:10.026Z,14.26
2023-05-11T07:28:10.024Z,14.30
2023-05-11T07:29:10.029Z,14.52
2023-05-11T07:30:09.998Z,14.31
2023-05-11T07:31:10.055Z,14.41
2023-05-11T07:32:09.980Z,14.17
2023-05-11T07:33:09.986Z,14.35
2023-05-11T07:34:09.979Z,14.35
2023-05-11T07:35:09.937Z,14.27
2023-05-11T07:36:09.925Z,14.35
2023-05-11T07:37:09.919Z,14.38
2023-05-11T07:38:09.909Z,14.66
2023-05-11T07:39:09.904Z,14.67
2023-05-11T07:40:09.888Z,14.41
2023-05-11T07:41:12.327Z,14.67
2023-05-11T07:42:09.876Z,14.59
2023-05-11T07:43:09.858Z,14.52
2023-05-11T07:44:09.853Z,14.48
2023-05-11T07:45:09.835Z,14.64
2023-05-11T07:46:09.884Z,14.57
2023-05-11T07:47:09.820Z,14.85
2023-05-11T07:48:09.867Z,15.14
2023-05-11T07:49:44.387Z,15.03
2023-05-11T07:50:43.702Z,15.43
2023-05-11T07:51:43.691Z,15.73
2023-05-11T07:52:43.679Z,15.60
2023-05-11T07:53:45.222Z,15.17
2023-05-11T07:54:43.668Z,15.58
2023-05-11T07:55:43.663Z,15.36
2023-05-11T07:56:43.637Z,15.26
2023-05-11T07:57:43.629Z,15.51
2023-05-11T07:58:43.641Z,15.45
2023-05-11T07:59:43.605Z,15.36
2023-05-11T08:00:43.798Z,15.39
2023-05-11T08:01:43.608Z,15.92
2023-05-11T08:02:43.616Z,15.70
2023-05-11T08:03:43.572Z,15.14
2023-05-11T08:04:43.553Z,15.40
2023-05-11T08:05:43.589Z,15.30
2023-05-11T08:06:43.534Z,14.94
2023-05-11T08:07:43.521Z,14.86
2023-05-11T08:08:43.504Z,15.12
2023-05-11T08:09:43.505Z,15.02
2023-05-11T08:10:43.519Z,15.22
2023-05-11T08:11:43.482Z,14.36
2023-05-11T08:12:43.670Z,14.34
2023-05-11T08:13:43.463Z,14.81
2023-05-11T08:14:43.482Z,14.59
2023-05-11T08:15:43.438Z,15.19
2023-05-11T08:16:43.447Z,14.64
2023-05-11T08:17:43.565Z,14.77
2023-05-11T08:18:43.479Z,14.90
2023-05-11T08:19:43.396Z,15.11
2023-05-11T08:20:44.935Z,15.06
2023-05-11T08:21:43.408Z,15.30
2023-05-11T08:22:43.362Z,15.21
2023-05-11T08:23:45.146Z,15.19
2023-05-11T08:24:43.339Z,15.32
2023-05-11T08:25:43.337Z,15.11
2023-05-11T08:26:43.320Z,15.14
2023-05-11T08:27:43.311Z,15.27
2023-05-11T08:28:43.303Z,15.51
2023-05-11T08:29:43.289Z,15.39
2023-05-11T08:30:43.279Z,15.55
2023-05-11T08:31:43.354Z,15.66
2023-05-11T08:33:43.430Z,15.58
2023-05-11T08:34:43.353Z,15.39
2023-05-11T08:35:43.224Z,15.42
2023-05-11T08:36:43.216Z,15.93
2023-05-11T08:37:43.242Z,15.91
2023-05-11T08:38:43.202Z,15.99
2023-05-11T08:39:46.629Z,15.78
2023-05-11T08:40:43.177Z,16.16
2023-05-11T08:41:43.172Z,15.92
2023-05-11T08:42:43.152Z,16.32
2023-05-11T08:43:43.138Z,16.28
2023-05-11T08:44:43.136Z,16.14
2023-05-11T08:45:43.167Z,15.88
2023-05-11T08:46:43.110Z,16.26
2023-05-11T08:47:43.111Z,16.58
2023-05-11T08:48:43.096Z,17.09
2023-05-11T08:49:43.082Z,17.03
2023-05-11T08:50:43.065Z,17.36
2023-05-11T08:51:43.058Z,17.15
2023-05-11T08:52:43.049Z,17.09
2023-05-11T08:53:43.063Z,17.76
2023-05-11T08:54:43.026Z,17.61
2023-05-11T08:55:43.013Z,17.76
2023-05-11T08:56:43.000Z,18.06
2023-05-11T08:57:42.994Z,18.24
2023-05-11T08:58:42.979Z,18.10
2023-05-11T08:59:42.970Z,17.90
2023-05-11T09:00:42.954Z,17.47
2023-05-11T09:01:43.007Z,17.27
2023-05-11T09:02:43.226Z,17.20
2023-05-11T09:03:42.924Z,17.12
2023-05-11T09:04:42.912Z,16.99
2023-05-11T09:05:42.991Z,16.98
2023-05-11T09:06:42.893Z,16.96
2023-05-11T09:07:42.883Z,16.79
2023-05-11T09:08:42.868Z,16.80
2023-05-11T09:09:42.879Z,17.22
2023-05-11T09:10:42.854Z,16.99
2023-05-11T09:11:42.840Z,16.56
2023-05-11T09:12:42.827Z,16.41
2023-05-11T09:13:42.815Z,16.79
2023-05-11T09:14:42.812Z,16.91
2023-05-11T09:15:42.870Z,17.22
2023-05-11T09:16:42.807Z,17.12
2023-05-11T09:17:42.798Z,17.32
2023-05-11T09:18:43.233Z,16.86
2023-05-11T09:19:42.757Z,17.25
2023-05-11T09:20:42.742Z,17.55
2023-05-11T09:21:42.734Z,17.42
2023-05-11T09:22:42.716Z,17.75
2023-05-11T09:23:42.714Z,18.18
2023-05-11T09:24:42.719Z,18.08
2023-05-11T09:25:42.725Z,18.12
2023-05-11T09:26:42.701Z,17.73
2023-05-11T09:27:42.722Z,17.72
2023-05-11T09:28:46.119Z,17.47
2023-05-11T09:29:42.661Z,17.98
2023-05-11T09:30:42.637Z,18.06
2023-05-11T09:31:42.718Z,17.67
2023-05-11T09:32:42.627Z,17.05
2023-05-11T09:33:42.603Z,16.92
2023-05-11T09:34:43.231Z,17.09
2023-05-11T09:35:42.585Z,16.61
2023-05-11T09:36:42.567Z,17.00
2023-05-11T09:37:42.561Z,16.72
2023-05-11T09:38:42.559Z,16.28
2023-05-11T09:39:59.239Z,15.96
2023-05-11T09:40:43.674Z,15.78
2023-05-11T09:41:42.536Z,15.99
2023-05-11T09:42:42.502Z,15.96
2023-05-11T09:43:42.499Z,15.93
2023-05-11T09:44:42.499Z,15.96
2023-05-11T09:45:42.479Z,15.73
2023-05-11T09:46:42.603Z,15.68
2023-05-11T09:47:42.473Z,15.76
2023-05-11T09:48:42.441Z,15.71
2023-05-11T09:49:42.436Z,15.48
2023-05-11T09:50:42.421Z,15.85
2023-05-11T09:51:42.413Z,16.04
2023-05-11T09:52:42.398Z,16.04
2023-05-11T09:53:42.393Z,16.14
2023-05-11T09:54:42.580Z,16.54
2023-05-11T09:55:42.366Z,16.24
2023-05-11T09:56:42.373Z,16.31
2023-05-11T09:57:42.367Z,16.64
2023-05-11T09:58:42.336Z,16.61
2023-05-11T09:59:42.340Z,15.95
2023-05-11T10:00:42.314Z,16.25
2023-05-11T10:01:42.398Z,16.62
2023-05-11T10:02:42.331Z,16.46
2023-05-11T10:03:42.397Z,16.90
2023-05-11T10:04:42.271Z,16.95
2023-05-11T10:05:42.261Z,16.80
2023-05-11T10:06:42.251Z,17.18
2023-05-11T10:07:42.241Z,17.10
2023-05-11T10:08:42.227Z,16.90
2023-05-11T10:09:42.421Z,17.07
2023-05-11T10:10:42.214Z,17.07
2023-05-11T10:11:42.198Z,16.81
2023-05-11T10:12:42.195Z,16.51
2023-05-11T10:13:42.205Z,16.50
2023-05-11T10:14:42.182Z,16.36
2023-05-11T10:15:42.156Z,16.61
2023-05-11T10:16:42.148Z,17.05
2023-05-11T10:17:42.144Z,17.15
2023-05-11T10:18:42.152Z,17.27
2023-05-11T10:19:42.113Z,17.15
2023-05-11T10:20:42.134Z,17.64
2023-05-11T10:21:42.294Z,17.47
2023-05-11T10:22:42.090Z,16.69
2023-05-11T10:23:42.080Z,16.79
2023-05-11T10:24:42.058Z,16.17
2023-05-11T10:25:42.048Z,16.62
2023-05-11T10:26:42.037Z,16.51
2023-05-11T10:27:42.025Z,16.58
2023-05-11T10:28:42.014Z,16.68
2023-05-11T10:29:42.028Z,17.12
2023-05-11T10:30:41.991Z,17.25
2023-05-11T10:31:42.050Z,18.06
2023-05-11T10:32:42.004Z,17.91
2023-05-11T10:33:41.964Z,17.97
2023-05-11T10:34:41.950Z,18.28
2023-05-11T10:35:41.947Z,18.03
2023-05-11T10:36:41.937Z,17.62
2023-05-11T10:37:41.925Z,17.38
2023-05-11T10:38:41.908Z,17.10
2023-05-11T10:39:41.898Z,17.39
2023-05-11T10:40:41.889Z,17.51
2023-05-11T10:41:41.883Z,17.65
2023-05-11T10:42:41.865Z,18.00
2023-05-11T10:43:41.857Z,17.67
2023-05-11T10:44:41.847Z,18.03
2023-05-11T10:45:41.901Z,17.46
2023-05-11T10:46:41.825Z,17.43
2023-05-11T10:47:41.895Z,17.98
2023-05-11T10:48:41.803Z,17.91
2023-05-11T10:49:41.796Z,17.47
2023-05-11T10:50:43.325Z,17.36
2023-05-11T10:51:41.778Z,17.65
2023-05-11T10:52:41.768Z,17.73
2023-05-11T10:53:41.765Z,17.76
2023-05-11T10:54:41.738Z,18.15
2023-05-11T10:55:41.736Z,17.55
2023-05-11T10:56:41.716Z,17.85
2023-05-11T10:57:41.712Z,17.72
2023-05-11T10:59:15.615Z,17.95
2023-05-11T11:00:15.725Z,17.95
2023-05-11T11:01:15.659Z,18.35
2023-05-11T11:02:15.584Z,18.42
2023-05-11T11:03:15.598Z,18.27
2023-05-11T11:04:15.586Z,18.22
2023-05-11T11:05:15.583Z,18.22
2023-05-11T11:06:15.541Z,18.16
2023-05-11T11:07:15.538Z,18.03
2023-05-11T11:08:15.527Z,18.13
2023-05-11T11:09:15.524Z,18.54
2023-05-11T11:10:15.502Z,18.09
2023-05-11T11:11:15.487Z,18.35
2023-05-11T11:12:15.474Z,18.78
2023-05-11T11:13:15.468Z,19.27
2023-05-11T11:14:15.532Z,19.26
2023-05-11T11:15:15.482Z,19.26
2023-05-11T11:16:16.534Z,19.19
2023-05-11T11:17:15.579Z,19.46
2023-05-11T11:18:15.416Z,19.34
2023-05-11T11:19:15.407Z,19.20
2023-05-11T11:20:15.401Z,19.29
2023-05-11T11:21:15.394Z,18.97
2023-05-11T11:22:15.376Z,18.78
2023-05-11T11:23:15.366Z,18.83
2023-05-11T11:24:15.363Z,18.59
2023-05-11T11:25:15.346Z,18.75
2023-05-11T11:26:15.346Z,18.66
2023-05-11T11:27:15.330Z,18.86
2023-05-11T11:28:15.526Z,18.65
2023-05-11T11:29:15.319Z,18.44
2023-05-11T11:30:15.292Z,18.65
2023-05-11T11:31:15.322Z,18.90
2023-05-11T11:32:15.274Z,18.54
2023-05-11T11:33:15.334Z,18.66
2023-05-11T11:34:15.258Z,18.65
2023-05-11T11:35:15.247Z,19.02
2023-05-11T11:36:15.232Z,18.83
2023-05-11T11:37:15.219Z,18.90
2023-05-11T11:38:15.214Z,18.87
2023-05-11T11:39:15.204Z,19.01
2023-05-11T11:40:15.962Z,19.05
2023-05-11T11:41:15.183Z,18.13
2023-05-11T11:42:15.193Z,18.30
2023-05-11T11:43:15.163Z,18.59
2023-05-11T11:44:15.149Z,18.39
2023-05-11T11:45:15.138Z,18.22
2023-05-11T11:46:15.141Z,18.32
2023-05-11T11:47:15.116Z,18.20
2023-05-11T11:48:15.203Z,18.09
2023-05-11T11:49:15.139Z,18.03
2023-05-11T11:50:15.101Z,18.06
2023-05-11T11:51:15.075Z,18.25
2023-05-11T11:52:15.076Z,17.78
2023-05-11T11:53:15.056Z,17.82
2023-05-11T11:54:15.247Z,17.85
2023-05-11T11:55:15.034Z,17.09
2023-05-11T11:56:15.023Z,17.12
2023-05-11T11:57:15.013Z,17.46
2023-05-11T11:58:15.000Z,17.85
2023-05-11T11:59:15.063Z,17.72
2023-05-11T12:00:14.986Z,17.67
2023-05-11T12:01:14.976Z,18.09
2023-05-11T12:02:14.955Z,18.27
2023-05-11T12:03:15.099Z,18.16
2023-05-11T12:04:15.150Z,18.59
2023-05-11T12:05:15.013Z,18.27
2023-05-11T12:06:14.911Z,18.25
2023-05-11T12:07:14.906Z,18.36
2023-05-11T12:08:14.893Z,18.12
2023-05-11T12:09:14.883Z,18.18
2023-05-11T12:10:15.152Z,18.35
2023-05-11T12:11:14.875Z,17.90
2023-05-11T12:12:14.850Z,18.04
2023-05-11T12:13:14.848Z,18.22
2023-05-11T12:14:14.827Z,18.03
2023-05-11T12:15:14.832Z,17.70
2023-05-11T12:16:14.841Z,17.64
2023-05-11T12:17:14.795Z,17.90
2023-05-11T12:18:14.785Z,18.04
2023-05-11T12:19:14.818Z,18.03
2023-05-11T12:20:14.776Z,18.35
2023-05-11T12:21:14.772Z,17.61
2023-05-11T12:22:14.771Z,17.46
2023-05-11T12:23:14.734Z,17.97
2023-05-11T12:24:14.719Z,18.30
2023-05-11T12:25:14.714Z,17.90
2023-05-11T12:26:14.697Z,18.15
2023-05-11T12:27:14.711Z,18.00
2023-05-11T12:28:14.677Z,18.25
2023-05-11T12:29:14.666Z,18.39
2023-05-11T12:30:14.654Z,18.35
2023-05-11T12:31:14.681Z,18.24
2023-05-11T12:32:14.793Z,17.72
2023-05-11T12:33:14.642Z,18.04
2023-05-11T12:34:14.822Z,18.25
2023-05-11T12:35:14.607Z,17.88
2023-05-11T12:36:14.594Z,17.45
2023-05-11T12:37:14.606Z,17.70
2023-05-11T12:38:14.580Z,18.89
2023-05-11T12:39:14.561Z,18.56
2023-05-11T12:40:14.549Z,18.69
2023-05-11T12:41:14.538Z,18.41
2023-05-11T12:42:14.530Z,18.66
2023-05-11T12:43:14.723Z,18.62
2023-05-11T12:44:14.512Z,18.53
2023-05-11T12:45:14.506Z,18.54
2023-05-11T12:46:14.526Z,18.66
2023-05-11T12:47:14.481Z,18.65
2023-05-11T12:48:14.517Z,19.11
2023-05-11T12:49:14.469Z,18.42
2023-05-11T12:50:14.477Z,18.47
2023-05-11T12:51:14.438Z,17.83
2023-05-11T12:52:14.435Z,17.78
2023-05-11T12:53:14.448Z,17.85
2023-05-11T12:54:14.403Z,17.57
2023-05-11T12:55:14.397Z,17.30
2023-05-11T12:56:14.392Z,17.06
2023-05-11T12:57:14.373Z,17.07
2023-05-11T12:58:14.368Z,17.32
2023-05-11T12:59:14.355Z,17.07
2023-05-11T13:00:14.346Z,16.83
2023-05-11T13:01:14.360Z,16.47
2023-05-11T13:02:14.339Z,15.98
2023-05-11T13:03:14.426Z,15.89
2023-05-11T13:04:14.301Z,15.59
2023-05-11T13:05:14.326Z,16.06
2023-05-11T13:06:14.481Z,15.73
2023-05-11T13:07:14.269Z,15.59
2023-05-11T13:08:14.270Z,15.27
2023-05-11T13:09:14.269Z,15.33
2023-05-11T13:10:15.735Z,15.15
2023-05-11T13:11:14.229Z,14.89
2023-05-11T13:12:14.220Z,15.37
2023-05-11T13:13:14.207Z,15.17
2023-05-11T13:14:14.212Z,15.55
2023-05-11T13:15:14.222Z,15.21
2023-05-11T13:16:14.191Z,15.21
2023-05-11T13:17:14.165Z,15.12
2023-05-11T13:18:16.444Z,15.34
2023-05-11T13:19:14.199Z,14.89
2023-05-11T13:20:14.132Z,14.97
2023-05-11T13:21:14.119Z,15.22
2023-05-11T13:22:14.109Z,14.93
2023-05-11T13:23:14.093Z,14.92
2023-05-11T13:24:14.086Z,14.29
2023-05-11T13:25:14.096Z,14.61
2023-05-11T13:26:14.071Z,14.74
2023-05-11T13:27:14.057Z,14.13
2023-05-11T13:28:14.087Z,14.24
2023-05-11T13:29:14.049Z,14.78
2023-05-11T13:30:14.052Z,14.45
2023-05-11T13:31:14.126Z,14.24
2023-05-11T13:32:14.144Z,14.36
2023-05-11T13:33:14.027Z,14.26
2023-05-11T13:34:13.980Z,14.35
2023-05-11T13:35:13.988Z,14.16
2023-05-11T13:36:13.958Z,14.26
2023-05-11T13:37:13.951Z,14.31
2023-05-11T13:38:13.946Z,14.12
2023-05-11T13:39:13.929Z,13.97
2023-05-11T13:40:14.006Z,14.23
2023-05-11T13:41:13.929Z,14.01
2023-05-11T13:42:13.898Z,13.93
2023-05-11T13:43:13.888Z,14.29
2023-05-11T13:44:13.877Z,14.17
2023-05-11T13:45:13.874Z,14.36
2023-05-11T13:46:13.860Z,14.34
2023-05-11T13:47:13.946Z,14.20
2023-05-11T13:48:13.911Z,14.20
2023-05-11T13:49:13.824Z,14.53
2023-05-11T13:50:13.816Z,14.74
2023-05-11T13:51:13.806Z,14.30
2023-05-11T13:52:13.794Z,14.00
2023-05-11T13:53:14.023Z,14.39
2023-05-11T13:54:13.778Z,13.92
2023-05-11T13:55:13.762Z,14.35
2023-05-11T13:56:13.754Z,14.21
2023-05-11T13:57:13.776Z,14.26
2023-05-11T13:58:13.728Z,14.61
2023-05-11T13:59:13.726Z,14.13
2023-05-11T14:00:13.740Z,14.38
2023-05-11T14:01:13.734Z,14.01
2023-05-11T14:02:13.927Z,14.67
2023-05-11T14:03:13.729Z,13.93
2023-05-11T14:04:13.676Z,14.24
2023-05-11T14:05:13.670Z,14.44
2023-05-11T14:06:13.646Z,14.06
2023-05-11T14:07:13.637Z,14.41
2023-05-11T14:08:13.641Z,14.36
2023-05-11T14:09:13.614Z,14.23
2023-05-11T14:10:13.662Z,14.46
2023-05-11T14:11:13.604Z,14.59
2023-05-11T14:12:13.591Z,14.23
2023-05-11T14:13:13.598Z,14.36
2023-05-11T14:14:13.635Z,14.34
2023-05-11T14:15:13.613Z,13.97
2023-05-11T14:16:13.565Z,14.26
2023-05-11T14:17:13.604Z,14.45
2023-05-11T14:18:13.626Z,14.39
2023-05-11T14:19:13.560Z,14.56
2023-05-11T14:20:13.516Z,14.67
2023-05-11T14:21:13.506Z,14.67
2023-05-11T14:22:13.490Z,14.26
2023-05-11T14:23:13.470Z,14.72
2023-05-11T14:24:13.499Z,14.63
2023-05-11T14:25:13.451Z,14.36
2023-05-11T14:26:13.435Z,14.69
2023-05-11T14:27:13.436Z,14.61
2023-05-11T14:28:13.431Z,14.86
2023-05-11T14:29:13.479Z,14.96
2023-05-11T14:30:13.400Z,14.74
2023-05-11T14:31:13.425Z,14.60
2023-05-11T14:32:13.380Z,14.78
2023-05-11T14:33:13.446Z,14.78
2023-05-11T14:34:13.419Z,15.10
2023-05-11T14:35:13.344Z,15.00
2023-05-11T14:36:13.332Z,15.39
2023-05-11T14:37:13.344Z,15.11
2023-05-11T14:38:13.322Z,15.37
2023-05-11T14:39:13.318Z,15.29
2023-05-11T14:40:13.312Z,15.21
2023-05-11T14:41:13.285Z,15.48
2023-05-11T14:42:13.278Z,15.37
2023-05-11T14:43:13.273Z,15.12
2023-05-11T14:44:13.274Z,14.90
2023-05-11T14:45:13.274Z,15.43
2023-05-11T14:46:13.248Z,14.92
2023-05-11T14:47:13.226Z,15.29
2023-05-11T14:48:13.338Z,15.27
2023-05-11T14:49:13.229Z,14.99
2023-05-11T14:50:13.188Z,15.08
2023-05-11T14:51:13.193Z,15.32
2023-05-11T14:52:13.176Z,15.21
2023-05-11T14:53:13.160Z,15.18
2023-05-11T14:54:13.152Z,14.99
2023-05-11T14:55:13.139Z,14.85
2023-05-11T14:56:13.129Z,15.29
2023-05-11T14:57:13.121Z,15.27
2023-05-11T14:58:13.317Z,15.53
2023-05-11T14:59:13.096Z,14.97
2023-05-11T15:00:13.100Z,15.33
2023-05-11T15:01:13.126Z,14.75
2023-05-11T15:02:13.078Z,15.02
2023-05-11T15:03:13.149Z,14.84
2023-05-11T15:04:13.096Z,15.06
2023-05-11T15:05:13.042Z,15.30
2023-05-11T15:06:13.032Z,15.27
2023-05-11T15:07:13.023Z,15.43
2023-05-11T15:08:25.838Z,15.19
2023-05-11T15:09:14.021Z,15.03
2023-05-11T15:10:12.988Z,15.10
2023-05-11T15:11:12.976Z,14.99
2023-05-11T15:12:12.977Z,14.99
2023-05-11T15:13:12.960Z,15.17
2023-05-11T15:14:12.947Z,15.02
2023-05-11T15:15:12.932Z,15.18
2023-05-11T15:16:12.978Z,14.97
2023-05-11T15:17:12.951Z,15.03
2023-05-11T15:18:33.099Z,15.26
2023-05-11T15:19:33.543Z,15.32
2023-05-11T15:21:40.827Z,15.08
2023-05-11T15:22:40.813Z,15.32
2023-05-11T15:23:40.825Z,15.17
2023-05-11T15:24:40.794Z,14.86
2023-05-11T15:25:40.779Z,15.17
2023-05-11T15:26:40.771Z,15.15
2023-05-11T15:27:40.755Z,15.30
2023-05-11T15:28:40.759Z,15.24
2023-05-11T15:29:40.811Z,15.10
2023-05-11T15:30:40.742Z,14.72
2023-05-11T15:31:40.776Z,14.77
2023-05-11T15:32:40.744Z,14.75
2023-05-11T15:33:40.720Z,14.57
2023-05-11T15:34:51.232Z,14.42
2023-05-11T15:35:41.701Z,14.30
2023-05-11T15:36:40.665Z,14.29
2023-05-11T15:37:40.649Z,14.63
2023-05-11T15:38:40.647Z,14.39
2023-05-11T15:39:40.631Z,14.17
2023-05-11T15:40:40.619Z,14.21
2023-05-11T15:41:40.617Z,14.24
2023-05-11T15:42:40.607Z,14.42
2023-05-11T15:43:40.588Z,14.57
2023-05-11T15:44:40.580Z,14.34
2023-05-11T15:45:40.586Z,14.59
2023-05-11T15:46:40.565Z,14.67
2023-05-11T15:47:40.790Z,14.38
2023-05-11T15:48:40.565Z,14.34
2023-05-11T15:49:40.527Z,14.79
2023-05-11T15:50:40.519Z,14.61
2023-05-11T15:51:40.501Z,14.42
2023-05-11T15:52:40.501Z,14.54
2023-05-11T15:53:40.490Z,14.79
2023-05-11T15:54:40.475Z,14.63
2023-05-11T15:55:40.466Z,14.93
2023-05-11T15:56:40.473Z,14.90
2023-05-11T15:57:40.447Z,14.57
2023-05-11T15:58:40.433Z,14.34
2023-05-11T15:59:40.420Z,14.74
2023-05-11T16:00:40.410Z,14.79
2023-05-11T16:01:40.421Z,14.75
2023-05-11T16:02:40.434Z,14.71
2023-05-11T16:03:40.389Z,14.63
2023-05-11T16:04:40.386Z,14.61
2023-05-11T16:05:40.355Z,14.49
2023-05-11T16:06:40.345Z,14.63
2023-05-11T16:07:40.339Z,14.63
2023-05-11T16:08:40.327Z,14.56
2023-05-11T16:09:40.314Z,14.56
2023-05-11T16:10:40.314Z,14.35
2023-05-11T16:11:40.292Z,13.98
2023-05-11T16:12:40.284Z,14.21
2023-05-11T16:13:40.276Z,14.42
2023-05-11T16:14:40.262Z,14.42
2023-05-11T16:15:40.248Z,14.24
2023-05-11T16:16:40.265Z,14.35
2023-05-11T16:17:40.262Z,13.68
2023-05-11T16:18:40.244Z,14.17
2023-05-11T16:19:40.206Z,14.29
2023-05-11T16:20:40.223Z,14.17
2023-05-11T16:21:40.186Z,14.11
2023-05-11T16:22:40.180Z,14.41
2023-05-11T16:23:40.164Z,14.41
2023-05-11T16:24:40.168Z,14.42
2023-05-11T16:25:40.151Z,14.71
2023-05-11T16:26:40.136Z,14.56
2023-05-11T16:27:40.124Z,14.82
2023-05-11T16:28:40.112Z,14.42
2023-05-11T16:29:40.105Z,14.78
2023-05-11T16:30:40.100Z,14.84
2023-05-11T16:31:40.134Z,14.45
2023-05-11T16:32:40.090Z,14.57
2023-05-11T16:33:40.063Z,14.39
2023-05-11T16:34:40.055Z,14.67
2023-05-11T16:35:40.041Z,14.44
2023-05-11T16:36:40.257Z,14.71
2023-05-11T16:37:40.035Z,14.81
2023-05-11T16:38:40.022Z,15.02
2023-05-11T16:39:40.003Z,14.85
2023-05-11T16:40:40.019Z,14.63
2023-05-11T16:41:39.980Z,14.45
2023-05-11T16:42:39.981Z,14.36
2023-05-11T16:43:39.958Z,14.75
2023-05-11T16:44:39.950Z,14.66
2023-05-11T16:45:39.943Z,14.60
2023-05-11T16:46:39.982Z,14.49
2023-05-11T16:47:39.932Z,14.57
2023-05-11T16:48:39.909Z,14.59
2023-05-11T16:49:39.897Z,14.57
2023-05-11T16:50:39.909Z,14.93
2023-05-11T16:51:39.875Z,14.67
2023-05-11T16:52:39.886Z,14.36
2023-05-11T16:53:39.853Z,14.81
2023-05-11T16:54:39.859Z,14.66
2023-05-11T16:55:39.833Z,14.69
2023-05-11T16:56:39.821Z,14.85
2023-05-11T16:57:39.808Z,14.23
2023-05-11T16:58:39.800Z,14.57
2023-05-11T16:59:39.796Z,14.44
2023-05-11T17:00:39.782Z,14.71
2023-05-11T17:01:39.815Z,14.54
2023-05-11T17:02:39.808Z,14.48
2023-05-11T17:03:39.831Z,14.52
2023-05-11T17:04:39.746Z,14.53
2023-05-11T17:05:39.727Z,14.48